KANK

Harriet Alexander Field Airport

Salida, Colorado, USA
METAR KANK 241215Z AUTO 25008KT 10SM CLR M06/M15 A2985 RMK AO1 T10651155
Observed Flight Rules
Feb-24 @ 12:15 UTC (6 minutes ago) Visual Flight Rules
Wind Visibility Clouds
250° at 8 knots 10 miles
  • Clear skies
Temperatures Readings
Current -7°C / 19°F
Dewpoint -16°C / 3°F
Humidity 49%
Altimeter 29.85" Hg
Pressure 1011 hPa
Elevation 2293
METAR KANK 241215Z AUTO 25008KT 10SM CLR M06/M15 A2985 RMK AO1 T10651155
Observed Flight Rules
Feb-24 @ 12:15 UTC
(6 minutes ago)
VFR
Wind Visibility
250° at 8 knots 10 miles
Clouds
  • Clear skies
Temperature Dewpoint
-7°C / 19°F -16°C / 3°F
Humidity Altimeter Pressure
49% 29.85" Hg 1011 hPa